createdAt,value
2023-03-04T00:01:02.104Z,99471.66
2023-03-04T00:03:37.401Z,99471.00
2023-03-04T00:06:10.872Z,99475.77
2023-03-04T00:08:44.261Z,99471.53
2023-03-04T00:11:17.660Z,99471.53
2023-03-04T00:13:50.520Z,99464.16
2023-03-04T00:16:23.610Z,99470.89
2023-03-04T00:18:58.665Z,99466.02
2023-03-04T00:21:32.538Z,99458.94
2023-03-04T00:24:07.174Z,99457.12
2023-03-04T00:26:41.567Z,99459.71
2023-03-04T00:29:14.489Z,99462.17
2023-03-04T00:31:48.079Z,99458.99
2023-03-04T00:34:21.656Z,99459.77
2023-03-04T00:36:56.791Z,99454.48
2023-03-04T00:39:30.342Z,99453.09
2023-03-04T00:42:03.216Z,99447.05
2023-03-04T00:44:36.716Z,99445.75
2023-03-04T00:47:09.701Z,99437.90
2023-03-04T00:49:43.408Z,99435.73
2023-03-04T00:52:16.780Z,99436.61
2023-03-04T00:54:51.131Z,99431.45
2023-03-04T00:57:24.635Z,99434.55
2023-03-04T00:59:58.242Z,99428.47
2023-03-04T01:02:31.175Z,99432.74
2023-03-04T01:05:06.429Z,99423.20
2023-03-04T01:07:39.845Z,99425.41
2023-03-04T01:10:15.599Z,99421.03
2023-03-04T01:12:49.166Z,99417.67
2023-03-04T01:15:22.350Z,99406.45
2023-03-04T01:17:56.473Z,99406.84
2023-03-04T01:20:29.311Z,99400.41
2023-03-04T01:23:02.356Z,99400.92
2023-03-04T01:25:35.656Z,99394.07
2023-03-04T01:28:08.753Z,99400.11
2023-03-04T01:30:42.429Z,99401.11
2023-03-04T01:33:16.189Z,99395.19
2023-03-04T01:35:49.676Z,99402.27
2023-03-04T01:38:23.121Z,99404.16
2023-03-04T01:40:56.450Z,99401.80
2023-03-04T01:43:31.729Z,99401.44
2023-03-04T01:46:05.310Z,99398.45
2023-03-04T01:48:40.489Z,99400.63
2023-03-04T01:51:19.614Z,99398.97
2023-03-04T01:53:55.093Z,99396.77
2023-03-04T01:56:31.864Z,99403.61
2023-03-04T01:59:15.438Z,99409.28
2023-03-04T02:01:55.838Z,99412.87
2023-03-04T02:04:34.783Z,99407.53
2023-03-04T02:07:09.526Z,99406.36
2023-03-04T02:09:42.904Z,99407.28
2023-03-04T02:12:18.954Z,99403.41
2023-03-04T02:14:51.894Z,99404.70
2023-03-04T02:17:29.052Z,99405.70
2023-03-04T02:20:35.458Z,99401.95
2023-03-04T02:23:25.365Z,99406.70
2023-03-04T02:26:20.756Z,99404.89
2023-03-04T02:28:57.336Z,99401.42
2023-03-04T02:31:37.643Z,99404.00
2023-03-04T02:34:16.757Z,99409.97
2023-03-04T02:36:52.942Z,99400.72
2023-03-04T02:39:38.686Z,99401.78
2023-03-04T02:42:12.639Z,99398.68
2023-03-04T02:44:50.166Z,99392.13
2023-03-04T02:47:24.394Z,99400.38
2023-03-04T02:49:57.035Z,99401.15
2023-03-04T02:52:30.785Z,99399.97
2023-03-04T02:55:03.803Z,99401.26
2023-03-04T02:57:36.614Z,99397.80
2023-03-04T03:00:11.122Z,99402.32
2023-03-04T03:02:44.751Z,99402.84
2023-03-04T03:05:18.195Z,99403.32
2023-03-04T03:07:51.422Z,99406.02
2023-03-04T03:10:25.759Z,99403.44
2023-03-04T03:12:59.217Z,99402.26
2023-03-04T03:15:32.912Z,99398.68
2023-03-04T03:18:05.712Z,99400.27
2023-03-04T03:20:39.087Z,99397.05
2023-03-04T03:23:12.703Z,99402.49
2023-03-04T03:25:45.593Z,99400.69
2023-03-04T03:28:18.945Z,99396.94
2023-03-04T03:30:52.118Z,99400.92
2023-03-04T03:33:25.459Z,99396.28
2023-03-04T03:35:58.278Z,99405.19
2023-03-04T03:38:31.349Z,99392.95
2023-03-04T03:41:04.501Z,99394.90
2023-03-04T03:43:37.617Z,99402.16
2023-03-04T03:46:10.506Z,99394.19
2023-03-04T03:48:44.255Z,99401.41
2023-03-04T03:51:18.073Z,99400.00
2023-03-04T03:53:50.859Z,99397.30
2023-03-04T03:56:23.687Z,99392.84
2023-03-04T03:58:56.770Z,99392.72
2023-03-04T04:01:29.933Z,99400.83
2023-03-04T04:04:03.267Z,99396.59
2023-03-04T04:06:36.125Z,99399.17
2023-03-04T04:09:08.986Z,99403.41
2023-03-04T04:11:42.009Z,99402.41
2023-03-04T04:14:16.196Z,99396.47
2023-03-04T04:16:49.106Z,99400.45
2023-03-04T04:19:22.754Z,99396.19
2023-03-04T04:21:55.173Z,99405.38
2023-03-04T04:24:28.233Z,99395.32
2023-03-04T04:27:02.193Z,99396.55
2023-03-04T04:29:36.608Z,99399.58
2023-03-04T04:32:12.072Z,99402.30
2023-03-04T04:34:45.525Z,99401.41
2023-03-04T04:37:18.690Z,99401.13
2023-03-04T04:39:52.404Z,99397.02
2023-03-04T04:42:26.229Z,99397.59
2023-03-04T04:44:59.746Z,99400.47
2023-03-04T04:47:32.869Z,99406.96
2023-03-04T04:50:07.658Z,99401.80
2023-03-04T04:52:42.253Z,99412.28
2023-03-04T04:55:15.241Z,99406.90
2023-03-04T04:57:48.277Z,99420.95
2023-03-04T05:00:21.630Z,99434.11
2023-03-04T05:02:55.476Z,99433.95
2023-03-04T05:05:28.163Z,99434.19
2023-03-04T05:08:01.568Z,99436.87
2023-03-04T05:10:35.254Z,99439.45
2023-03-04T05:13:08.128Z,99442.79
2023-03-04T05:15:42.134Z,99444.84
2023-03-04T05:18:14.984Z,99444.84
2023-03-04T05:20:56.985Z,99439.23
2023-03-04T05:23:34.261Z,99447.72
2023-03-04T05:26:07.986Z,99451.47
2023-03-04T05:28:41.020Z,99452.64
2023-03-04T05:31:14.452Z,99454.16
2023-03-04T05:33:48.774Z,99455.29
2023-03-04T05:36:21.635Z,99459.39
2023-03-04T05:38:54.727Z,99460.91
2023-03-04T05:41:28.067Z,99452.65
2023-03-04T05:44:01.527Z,99465.09
2023-03-04T05:46:34.675Z,99470.43
2023-03-04T05:49:08.019Z,99470.41
2023-03-04T05:51:40.909Z,99479.39
2023-03-04T05:54:13.955Z,99470.36
2023-03-04T05:56:47.506Z,99484.61
2023-03-04T05:59:20.994Z,99486.48
2023-03-04T06:01:54.218Z,99489.64
2023-03-04T06:04:27.004Z,99488.18
2023-03-04T06:07:00.503Z,99499.13
2023-03-04T06:09:34.225Z,99493.69
2023-03-04T06:12:07.357Z,99498.96
2023-03-04T06:14:40.809Z,99500.48
2023-03-04T06:17:14.069Z,99501.59
2023-03-04T06:19:46.958Z,99498.96
2023-03-04T06:22:20.208Z,99499.08
2023-03-04T06:24:53.167Z,99500.59
2023-03-04T06:27:26.984Z,99496.84
2023-03-04T06:30:01.948Z,99499.64
2023-03-04T06:32:34.109Z,99501.51
2023-03-04T06:35:07.867Z,99510.37
2023-03-04T06:37:40.767Z,99504.95
2023-03-04T06:40:14.211Z,99502.97
2023-03-04T06:42:48.901Z,99502.82
2023-03-04T06:45:23.326Z,99499.00
2023-03-04T06:47:56.507Z,99499.93
2023-03-04T06:50:29.269Z,99494.33
2023-03-04T06:53:03.034Z,99496.73
2023-03-04T06:55:36.639Z,99498.76
2023-03-04T06:58:09.883Z,99495.63
2023-03-04T07:00:42.687Z,99504.96
2023-03-04T07:03:16.399Z,99496.95
2023-03-04T07:05:50.107Z,99496.36
2023-03-04T07:08:23.100Z,99499.39
2023-03-04T07:10:57.051Z,99505.22
2023-03-04T07:13:29.928Z,99500.48
2023-03-04T07:16:03.672Z,99498.63
2023-03-04T07:18:38.288Z,99498.16
2023-03-04T07:21:11.910Z,99496.30
2023-03-04T07:23:46.024Z,99496.22
2023-03-04T07:26:19.528Z,99498.56
2023-03-04T07:28:54.317Z,99491.31
2023-03-04T07:31:31.390Z,99493.44
2023-03-04T07:34:08.490Z,99493.76
2023-03-04T07:36:42.178Z,99489.31
2023-03-04T07:39:15.899Z,99487.72
2023-03-04T07:41:48.614Z,99494.09
2023-03-04T07:44:22.143Z,99494.81
2023-03-04T07:46:54.936Z,99486.34
2023-03-04T07:49:28.228Z,99493.13
2023-03-04T07:52:07.246Z,99493.44
2023-03-04T07:54:40.388Z,99475.13
2023-03-04T07:57:14.186Z,99488.11
2023-03-04T07:59:48.290Z,99477.36
2023-03-04T08:02:21.007Z,99485.23
2023-03-04T08:04:53.991Z,99491.44
2023-03-04T08:07:27.315Z,99491.33
2023-03-04T08:10:00.902Z,99481.49
2023-03-04T08:12:34.049Z,99492.53
2023-03-04T08:15:08.645Z,99486.36
2023-03-04T08:17:42.060Z,99480.60
2023-03-04T08:20:15.433Z,99478.83
2023-03-04T08:22:48.374Z,99478.72
2023-03-04T08:25:21.564Z,99488.88
2023-03-04T08:27:54.722Z,99481.20
2023-03-04T08:30:27.475Z,99489.47
2023-03-04T08:33:00.414Z,99480.30
2023-03-04T08:35:35.114Z,99479.30
2023-03-04T08:38:08.385Z,99470.33
2023-03-04T08:40:42.514Z,99476.02
2023-03-04T08:43:16.292Z,99464.15
2023-03-04T08:45:49.487Z,99464.76
2023-03-04T08:48:23.077Z,99461.06
2023-03-04T08:50:56.352Z,99455.36
2023-03-04T08:53:29.914Z,99458.23
2023-03-04T08:56:02.867Z,99452.05
2023-03-04T08:58:36.863Z,99457.12
2023-03-04T09:01:12.638Z,99453.23
2023-03-04T09:03:46.000Z,99445.34
2023-03-04T09:06:19.584Z,99445.53
2023-03-04T09:08:52.476Z,99441.42
2023-03-04T09:11:26.161Z,99447.87
2023-03-04T09:14:00.077Z,99436.89
2023-03-04T09:16:33.451Z,99436.99
2023-03-04T09:19:06.447Z,99436.99
2023-03-04T09:21:39.827Z,99427.00
2023-03-04T09:24:12.611Z,99425.42
2023-03-04T09:26:46.270Z,99417.09
2023-03-04T09:29:19.687Z,99425.66
2023-03-04T09:31:52.493Z,99420.38
2023-03-04T09:34:25.260Z,99405.23
2023-03-04T09:36:58.126Z,99398.52
2023-03-04T09:39:31.642Z,99400.19
2023-03-04T09:42:05.634Z,99391.42
2023-03-04T09:44:44.378Z,99391.80
2023-03-04T09:47:19.175Z,99392.41
2023-03-04T09:50:00.142Z,99390.55
2023-03-04T09:53:08.078Z,99372.29
2023-03-04T09:55:47.823Z,99379.43
2023-03-04T09:58:51.061Z,99370.94
2023-03-04T10:01:41.405Z,99365.84
2023-03-04T10:04:33.588Z,99361.02
2023-03-04T10:07:11.577Z,99353.71
2023-03-04T10:09:55.216Z,99349.34
2023-03-04T10:12:31.681Z,99357.39
2023-03-04T10:15:17.113Z,99358.25
2023-03-04T10:17:55.573Z,99353.00
2023-03-04T10:20:36.189Z,99346.68
2023-03-04T10:23:20.017Z,99347.56
2023-03-04T10:25:54.728Z,99341.48
2023-03-04T10:28:31.272Z,99326.80
2023-03-04T10:31:17.612Z,99319.00
2023-03-04T10:33:51.242Z,99311.72
2023-03-04T10:36:57.208Z,99307.99
2023-03-04T10:39:45.208Z,99312.23
2023-03-04T10:42:23.218Z,99315.72
2023-03-04T10:45:00.193Z,99311.75
2023-03-04T10:47:35.612Z,99309.11
2023-03-04T10:50:15.256Z,99301.23
2023-03-04T10:52:52.961Z,99296.29
2023-03-04T10:55:33.625Z,99300.10
2023-03-04T10:58:08.005Z,99285.89
2023-03-04T11:00:41.449Z,99286.72
2023-03-04T11:03:31.126Z,99285.00
2023-03-04T11:06:23.142Z,99273.88
2023-03-04T11:09:00.196Z,99274.11
2023-03-04T11:11:46.611Z,99278.92
2023-03-04T11:14:38.828Z,99269.73
2023-03-04T11:17:27.599Z,99269.09
2023-03-04T11:20:17.591Z,99262.33
2023-03-04T11:22:50.510Z,99271.98
2023-03-04T11:25:30.203Z,99264.67
2023-03-04T11:28:23.127Z,99258.52
2023-03-04T11:31:00.661Z,99252.02
2023-03-04T11:34:07.704Z,99246.89
2023-03-04T11:37:03.854Z,99246.22
2023-03-04T11:39:40.182Z,99246.45
2023-03-04T11:42:36.557Z,99240.69
2023-03-04T11:45:28.457Z,99240.50
2023-03-04T11:48:10.337Z,99228.45
2023-03-04T11:51:09.631Z,99237.56
2023-03-04T11:54:08.555Z,99229.30
2023-03-04T11:56:51.537Z,99224.82
2023-03-04T11:59:55.180Z,99235.88
2023-03-04T12:02:51.207Z,99244.80
2023-03-04T12:05:53.601Z,99225.78
2023-03-04T12:08:35.330Z,99217.48
2023-03-04T12:11:24.035Z,99231.06
2023-03-04T12:14:17.198Z,99209.84
2023-03-04T12:17:21.226Z,99203.33
2023-03-04T12:20:22.928Z,99206.89
2023-03-04T12:23:19.367Z,99204.06
2023-03-04T12:26:05.844Z,99202.76
2023-03-04T12:29:01.271Z,99200.23
2023-03-04T12:31:50.010Z,99188.53
2023-03-04T12:34:36.574Z,99195.49
2023-03-04T12:37:47.479Z,99176.48
2023-03-04T12:40:33.750Z,99182.98
2023-03-04T12:43:37.628Z,99179.16
2023-03-04T12:46:36.025Z,99176.05
2023-03-04T12:49:46.582Z,99171.69
2023-03-04T12:52:45.230Z,99167.22
2023-03-04T12:55:21.835Z,99162.36
2023-03-04T12:57:57.083Z,99159.76
2023-03-04T13:00:55.903Z,99151.95
2023-03-04T13:04:04.850Z,99153.64
2023-03-04T13:07:12.937Z,99141.20
2023-03-04T13:10:14.909Z,99145.98
2023-03-04T13:13:00.397Z,99140.05
2023-03-04T13:15:39.732Z,99140.13
2023-03-04T13:18:35.525Z,99130.26
2023-03-04T13:21:25.066Z,99134.80
2023-03-04T13:23:58.299Z,99135.30
2023-03-04T13:26:36.746Z,99119.69
2023-03-04T13:29:29.513Z,99114.48
2023-03-04T13:32:11.167Z,99111.95
2023-03-04T13:34:54.380Z,99116.24
2023-03-04T13:37:36.923Z,99113.56
2023-03-04T13:40:37.748Z,99115.70
2023-03-04T13:43:41.077Z,99110.08
2023-03-04T13:46:28.088Z,99101.78
2023-03-04T13:49:04.510Z,99086.09
2023-03-04T13:51:46.182Z,99088.63
2023-03-04T13:54:30.678Z,99092.53
2023-03-04T13:57:21.660Z,99094.25
2023-03-04T13:59:58.878Z,99089.74
2023-03-04T14:02:35.155Z,99081.16
2023-03-04T14:05:11.871Z,99097.84
2023-03-04T14:07:45.236Z,99084.19
2023-03-04T14:10:26.957Z,99089.66
2023-03-04T14:13:01.784Z,99082.20
2023-03-04T14:15:36.164Z,99086.84
2023-03-04T14:18:09.557Z,99085.39
2023-03-04T14:20:47.814Z,99083.41
2023-03-04T14:23:37.256Z,99093.58
2023-03-04T14:26:14.988Z,99081.65
2023-03-04T14:28:53.457Z,99075.73
2023-03-04T14:31:30.630Z,99083.87
2023-03-04T14:34:05.094Z,99084.20
2023-03-04T14:36:39.702Z,99075.77
2023-03-04T14:39:17.950Z,99075.53
2023-03-04T14:41:52.307Z,99070.94
2023-03-04T14:44:50.038Z,99070.71
2023-03-04T14:47:44.708Z,99071.78
2023-03-04T14:50:21.369Z,99071.55
2023-03-04T14:53:14.027Z,99074.33
2023-03-04T14:56:11.531Z,99068.48
2023-03-04T14:58:59.841Z,99068.66
2023-03-04T15:01:37.082Z,99071.83
2023-03-04T15:04:13.827Z,99068.98
2023-03-04T15:06:54.968Z,99060.08
2023-03-04T15:09:29.159Z,99065.03
2023-03-04T15:12:08.383Z,99060.18
2023-03-04T15:14:52.314Z,99057.50
2023-03-04T15:17:41.435Z,99057.64
2023-03-04T15:20:24.920Z,99060.50
2023-03-04T15:23:07.507Z,99052.39
2023-03-04T15:25:40.315Z,99054.02
2023-03-04T15:28:20.355Z,99054.36
2023-03-04T15:30:53.689Z,99054.66
2023-03-04T15:33:26.620Z,99061.41
2023-03-04T15:36:04.408Z,99057.69
2023-03-04T15:38:37.486Z,99065.30
2023-03-04T15:41:23.917Z,99057.77
2023-03-04T15:43:58.754Z,99075.27
2023-03-04T15:46:31.693Z,99073.28
2023-03-04T15:49:04.726Z,99067.30
2023-03-04T15:51:38.789Z,99069.72
2023-03-04T15:54:14.633Z,99073.77
2023-03-04T15:56:48.447Z,99072.52
2023-03-04T15:59:22.154Z,99068.63
2023-03-04T16:01:55.396Z,99074.31
2023-03-04T16:04:28.719Z,99074.84
2023-03-04T16:07:01.688Z,99073.38
2023-03-04T16:09:35.429Z,99077.59
2023-03-04T16:12:12.142Z,99076.92
2023-03-04T16:14:46.755Z,99074.08
2023-03-04T16:17:21.033Z,99079.91
2023-03-04T16:19:54.400Z,99073.88
2023-03-04T16:22:29.975Z,99074.45
2023-03-04T16:25:02.987Z,99076.69
2023-03-04T16:27:36.636Z,99072.45
2023-03-04T16:30:16.563Z,99076.08
2023-03-04T16:32:49.884Z,99073.63
2023-03-04T16:35:28.862Z,99067.77
2023-03-04T16:38:03.577Z,99068.30
2023-03-04T16:40:37.103Z,99073.24
2023-03-04T16:43:13.985Z,99068.58
2023-03-04T16:45:47.388Z,99068.41
2023-03-04T16:48:21.107Z,99075.40
2023-03-04T16:50:54.261Z,99075.45
2023-03-04T16:53:37.641Z,99071.61
2023-03-04T16:56:17.402Z,99068.98
2023-03-04T16:58:50.984Z,99064.45
2023-03-04T17:01:30.245Z,99063.02
2023-03-04T17:04:03.564Z,99069.12
2023-03-04T17:06:38.276Z,99072.95
2023-03-04T17:09:11.435Z,99071.27
2023-03-04T17:11:45.004Z,99068.72
2023-03-04T17:14:18.607Z,99062.66
2023-03-04T17:16:52.264Z,99056.61
2023-03-04T17:19:26.086Z,99061.02
2023-03-04T17:22:03.213Z,99058.84
2023-03-04T17:24:41.460Z,99061.35
2023-03-04T17:27:14.542Z,99070.84
2023-03-04T17:29:49.401Z,99059.19
2023-03-04T17:32:22.726Z,99064.80
2023-03-04T17:34:58.860Z,99062.59
2023-03-04T17:37:32.022Z,99064.89
2023-03-04T17:40:09.243Z,99061.81
2023-03-04T17:42:44.138Z,99067.50
2023-03-04T17:45:19.186Z,99064.21
2023-03-04T17:47:52.322Z,99066.49
2023-03-04T17:50:25.507Z,99070.68
2023-03-04T17:52:59.006Z,99066.60
2023-03-04T17:55:32.165Z,99066.41
2023-03-04T17:58:05.486Z,99065.02
2023-03-04T18:00:39.511Z,99056.48
2023-03-04T18:03:17.328Z,99058.97
2023-03-04T18:05:50.261Z,99052.78
2023-03-04T18:08:24.374Z,99050.52
2023-03-04T18:10:58.109Z,99048.14
2023-03-04T18:13:31.260Z,99045.73
2023-03-04T18:16:05.115Z,99054.77
2023-03-04T18:18:40.928Z,99046.75
2023-03-04T18:21:15.465Z,99051.20
2023-03-04T18:23:48.883Z,99048.81
2023-03-04T18:26:25.465Z,99055.27
2023-03-04T18:29:04.235Z,99052.59
2023-03-04T18:31:37.985Z,99047.33
2023-03-04T18:34:12.052Z,99051.60
2023-03-04T18:36:44.875Z,99055.37
2023-03-04T18:39:18.297Z,99058.64
2023-03-04T18:41:51.108Z,99062.31
2023-03-04T18:44:23.941Z,99060.84
2023-03-04T18:46:58.165Z,99063.43
2023-03-04T18:49:31.886Z,99061.94
2023-03-04T18:52:05.435Z,99073.45
2023-03-04T18:54:38.542Z,99066.80
2023-03-04T18:57:14.673Z,99067.98
2023-03-04T18:59:59.515Z,99070.45
2023-03-04T19:02:50.032Z,99065.19
2023-03-04T19:05:29.764Z,99067.37
2023-03-04T19:08:03.268Z,99066.18
2023-03-04T19:10:37.078Z,99061.22
2023-03-04T19:13:10.577Z,99064.89
2023-03-04T19:15:43.614Z,99067.20
2023-03-04T19:18:16.488Z,99065.91
2023-03-04T19:20:50.244Z,99071.85
2023-03-04T19:23:25.061Z,99059.05
2023-03-04T19:25:57.172Z,99059.05
2023-03-04T19:28:29.984Z,99053.10
2023-03-04T19:31:08.097Z,99057.76
2023-03-04T19:33:42.559Z,99057.86
2023-03-04T19:36:15.396Z,99056.06
2023-03-04T19:38:49.819Z,99060.84
2023-03-04T19:41:23.528Z,99056.56
2023-03-04T19:43:58.683Z,99058.74
2023-03-04T19:46:32.493Z,99056.98
2023-03-04T19:49:06.159Z,99059.15
2023-03-04T19:51:39.658Z,99055.69
2023-03-04T19:54:12.468Z,99054.46
2023-03-04T19:56:46.295Z,99047.63
2023-03-04T19:59:19.264Z,99052.80
2023-03-04T20:01:52.426Z,99051.41
2023-03-04T20:04:25.221Z,99040.47
2023-03-04T20:06:59.051Z,99046.82
2023-03-04T20:09:33.943Z,99044.34
2023-03-04T20:12:07.464Z,99048.21
2023-03-04T20:14:40.343Z,99041.77
2023-03-04T20:17:15.775Z,99043.86
2023-03-04T20:19:48.974Z,99049.70
2023-03-04T20:22:22.041Z,99043.83
2023-03-04T20:24:55.245Z,99047.13
2023-03-04T20:27:28.574Z,99043.42
2023-03-04T20:30:03.804Z,99045.42
2023-03-04T20:32:36.684Z,99043.53
2023-03-04T20:35:12.015Z,99052.35
2023-03-04T20:37:45.999Z,99050.86
2023-03-04T20:40:19.174Z,99046.30
2023-03-04T20:42:52.270Z,99044.30
2023-03-04T20:45:25.264Z,99036.04
2023-03-04T20:47:57.925Z,99038.41
2023-03-04T20:50:31.382Z,99036.44
2023-03-04T20:53:04.501Z,99027.47
2023-03-04T20:55:37.305Z,99024.69
2023-03-04T20:58:10.104Z,99023.59
2023-03-04T21:00:42.944Z,99021.61
2023-03-04T21:03:16.262Z,99019.60
2023-03-04T21:05:49.207Z,99020.38
2023-03-04T21:08:23.340Z,99017.59
2023-03-04T21:10:57.496Z,99011.95
2023-03-04T21:13:32.759Z,99006.19
2023-03-04T21:16:06.955Z,99002.22
2023-03-04T21:18:40.225Z,99001.70
2023-03-04T21:21:22.458Z,98989.89
2023-03-04T21:23:57.288Z,98989.89
2023-03-04T21:26:30.285Z,98984.26
2023-03-04T21:29:03.240Z,98984.26
2023-03-04T21:31:40.467Z,98984.16
2023-03-04T21:34:30.461Z,98989.20
2023-03-04T21:37:04.911Z,98993.38
2023-03-04T21:39:38.519Z,98986.82
2023-03-04T21:42:12.113Z,98984.81
2023-03-04T21:44:49.596Z,98988.88
2023-03-04T21:47:21.654Z,98988.66
2023-03-04T21:49:55.008Z,98979.84
2023-03-04T21:52:27.940Z,98972.87
2023-03-04T21:55:01.072Z,98973.18
2023-03-04T21:57:34.246Z,98971.78
2023-03-04T22:00:08.799Z,98966.90
2023-03-04T22:02:43.317Z,98974.15
2023-03-04T22:05:17.951Z,98971.06
2023-03-04T22:07:50.992Z,98968.08
2023-03-04T22:10:24.253Z,98974.63
2023-03-04T22:12:58.262Z,98972.97
2023-03-04T22:15:31.176Z,98980.70
2023-03-04T22:18:06.441Z,98986.84
2023-03-04T22:20:42.497Z,98976.64
2023-03-04T22:23:15.836Z,98984.07
2023-03-04T22:25:49.420Z,98987.05
2023-03-04T22:28:24.941Z,98985.36
2023-03-04T22:30:58.878Z,98990.14
2023-03-04T22:33:33.701Z,98984.69
2023-03-04T22:36:07.782Z,98988.55
2023-03-04T22:38:41.813Z,98984.80
2023-03-04T22:41:17.665Z,98994.80
2023-03-04T22:43:51.556Z,98977.75
2023-03-04T22:46:30.475Z,98986.41
2023-03-04T22:49:06.058Z,98976.20
2023-03-04T22:51:41.618Z,98984.14
2023-03-04T22:54:17.910Z,98980.75
2023-03-04T22:56:50.734Z,98971.46
2023-03-04T22:59:23.610Z,98971.94
2023-03-04T23:01:57.333Z,98970.86
2023-03-04T23:04:30.301Z,98961.94
2023-03-04T23:07:04.470Z,98963.44
2023-03-04T23:09:37.938Z,98962.77
2023-03-04T23:12:11.689Z,98954.16
2023-03-04T23:14:45.077Z,98952.25
2023-03-04T23:17:18.716Z,98956.94
2023-03-04T23:19:51.799Z,98947.51
2023-03-04T23:22:25.422Z,98944.63
2023-03-04T23:24:58.276Z,98929.86
2023-03-04T23:27:31.157Z,98936.92
2023-03-04T23:30:04.905Z,98933.63
2023-03-04T23:32:38.240Z,98928.20
2023-03-04T23:35:12.007Z,98923.14
2023-03-04T23:37:44.803Z,98932.48
2023-03-04T23:40:19.461Z,98924.80
2023-03-04T23:42:53.474Z,98920.05
2023-03-04T23:45:26.428Z,98921.84
2023-03-04T23:47:59.927Z,98920.05
2023-03-04T23:50:34.934Z,98921.34
2023-03-04T23:53:08.327Z,98910.24
2023-03-04T23:55:42.409Z,98914.99
2023-03-04T23:58:16.023Z,98905.19
